sensor_id;sensor_type;location;lat;lon;timestamp;P1;durP1;ratioP1;P2;durP2;ratioP2
82742;SDS011;72483;50.656;7.216;2023-11-21T00:01:40;1.55;;;0.60;;
82742;SDS011;72483;50.656;7.216;2023-11-21T00:04:07;1.38;;;0.70;;
82742;SDS011;72483;50.656;7.216;2023-11-21T00:06:33;1.73;;;0.70;;
82742;SDS011;72483;50.656;7.216;2023-11-21T00:09:02;2.22;;;1.05;;
82742;SDS011;72483;50.656;7.216;2023-11-21T00:11:28;1.15;;;0.60;;
82742;SDS011;72483;50.656;7.216;2023-11-21T00:13:55;1.88;;;0.80;;
82742;SDS011;72483;50.656;7.216;2023-11-21T00:16:21;1.42;;;0.60;;
82742;SDS011;72483;50.656;7.216;2023-11-21T00:18:48;1.42;;;0.55;;
82742;SDS011;72483;50.656;7.216;2023-11-21T00:21:16;1.05;;;0.63;;
82742;SDS011;72483;50.656;7.216;2023-11-21T00:23:42;1.40;;;0.50;;
82742;SDS011;72483;50.656;7.216;2023-11-21T00:26:10;1.55;;;0.68;;
82742;SDS011;72483;50.656;7.216;2023-11-21T00:28:37;1.90;;;0.80;;
82742;SDS011;72483;50.656;7.216;2023-11-21T00:31:04;1.13;;;0.45;;
82742;SDS011;72483;50.656;7.216;2023-11-21T00:33:31;1.50;;;0.70;;
82742;SDS011;72483;50.656;7.216;2023-11-21T00:35:58;0.43;;;0.38;;
82742;SDS011;72483;50.656;7.216;2023-11-21T00:38:25;1.05;;;0.52;;
82742;SDS011;72483;50.656;7.216;2023-11-21T00:40:52;1.55;;;0.70;;
82742;SDS011;72483;50.656;7.216;2023-11-21T00:43:22;1.08;;;0.70;;
82742;SDS011;72483;50.656;7.216;2023-11-21T00:45:49;0.60;;;0.55;;
82742;SDS011;72483;50.656;7.216;2023-11-21T00:48:16;3.20;;;0.60;;
82742;SDS011;72483;50.656;7.216;2023-11-21T00:50:43;1.35;;;0.65;;
82742;SDS011;72483;50.656;7.216;2023-11-21T00:53:09;0.73;;;0.60;;
82742;SDS011;72483;50.656;7.216;2023-11-21T00:55:36;1.48;;;0.63;;
82742;SDS011;72483;50.656;7.216;2023-11-21T00:58:04;1.42;;;0.57;;
82742;SDS011;72483;50.656;7.216;2023-11-21T01:00:33;1.33;;;0.60;;
82742;SDS011;72483;50.656;7.216;2023-11-21T01:02:59;1.17;;;0.52;;
82742;SDS011;72483;50.656;7.216;2023-11-21T01:05:27;1.17;;;0.68;;
82742;SDS011;72483;50.656;7.216;2023-11-21T01:07:54;2.05;;;0.50;;
82742;SDS011;72483;50.656;7.216;2023-11-21T01:10:21;1.13;;;0.50;;
82742;SDS011;72483;50.656;7.216;2023-11-21T01:12:47;1.13;;;0.52;;
82742;SDS011;72483;50.656;7.216;2023-11-21T01:15:14;1.60;;;0.80;;
82742;SDS011;72483;50.656;7.216;2023-11-21T01:17:42;2.05;;;0.70;;
82742;SDS011;72483;50.656;7.216;2023-11-21T01:20:08;1.45;;;0.50;;
82742;SDS011;72483;50.656;7.216;2023-11-21T01:22:37;0.82;;;0.60;;
82742;SDS011;72483;50.656;7.216;2023-11-21T01:25:03;1.05;;;0.70;;
82742;SDS011;72483;50.656;7.216;2023-11-21T01:27:32;2.50;;;1.00;;
82742;SDS011;72483;50.656;7.216;2023-11-21T01:29:58;1.60;;;0.63;;
82742;SDS011;72483;50.656;7.216;2023-11-21T01:32:25;1.58;;;0.70;;
82742;SDS011;72483;50.656;7.216;2023-11-21T01:34:53;1.27;;;0.82;;
82742;SDS011;72483;50.656;7.216;2023-11-21T01:37:20;0.98;;;0.50;;
82742;SDS011;72483;50.656;7.216;2023-11-21T01:39:46;1.27;;;0.65;;
82742;SDS011;72483;50.656;7.216;2023-11-21T01:42:13;1.45;;;0.45;;
82742;SDS011;72483;50.656;7.216;2023-11-21T01:44:39;1.15;;;0.60;;
82742;SDS011;72483;50.656;7.216;2023-11-21T01:47:06;2.47;;;0.80;;
82742;SDS011;72483;50.656;7.216;2023-11-21T01:49:35;1.67;;;0.50;;
82742;SDS011;72483;50.656;7.216;2023-11-21T01:52:04;2.13;;;0.77;;
82742;SDS011;72483;50.656;7.216;2023-11-21T01:54:32;0.70;;;0.50;;
82742;SDS011;72483;50.656;7.216;2023-11-21T01:56:59;0.70;;;0.52;;
82742;SDS011;72483;50.656;7.216;2023-11-21T01:59:28;1.38;;;0.90;;
82742;SDS011;72483;50.656;7.216;2023-11-21T02:02:01;0.75;;;0.50;;
82742;SDS011;72483;50.656;7.216;2023-11-21T02:04:30;1.08;;;0.60;;
82742;SDS011;72483;50.656;7.216;2023-11-21T02:06:56;1.48;;;0.60;;
82742;SDS011;72483;50.656;7.216;2023-11-21T02:09:25;1.80;;;0.63;;
82742;SDS011;72483;50.656;7.216;2023-11-21T02:11:52;1.65;;;0.90;;
82742;SDS011;72483;50.656;7.216;2023-11-21T02:14:20;0.60;;;0.50;;
82742;SDS011;72483;50.656;7.216;2023-11-21T02:16:48;1.20;;;0.60;;
82742;SDS011;72483;50.656;7.216;2023-11-21T02:19:16;1.45;;;0.63;;
82742;SDS011;72483;50.656;7.216;2023-11-21T02:21:45;1.83;;;0.82;;
82742;SDS011;72483;50.656;7.216;2023-11-21T02:24:14;1.27;;;0.52;;
82742;SDS011;72483;50.656;7.216;2023-11-21T02:26:42;1.25;;;0.65;;
82742;SDS011;72483;50.656;7.216;2023-11-21T02:29:09;1.08;;;0.55;;
82742;SDS011;72483;50.656;7.216;2023-11-21T02:31:37;1.13;;;0.60;;
82742;SDS011;72483;50.656;7.216;2023-11-21T02:34:12;1.33;;;0.65;;
82742;SDS011;72483;50.656;7.216;2023-11-21T02:36:39;1.33;;;0.65;;
82742;SDS011;72483;50.656;7.216;2023-11-21T02:39:07;5.05;;;1.13;;
82742;SDS011;72483;50.656;7.216;2023-11-21T02:41:35;1.40;;;0.60;;
82742;SDS011;72483;50.656;7.216;2023-11-21T02:44:02;0.98;;;0.50;;
82742;SDS011;72483;50.656;7.216;2023-11-21T02:46:31;1.38;;;0.60;;
82742;SDS011;72483;50.656;7.216;2023-11-21T02:48:58;1.05;;;0.68;;
82742;SDS011;72483;50.656;7.216;2023-11-21T02:51:28;1.50;;;0.70;;
82742;SDS011;72483;50.656;7.216;2023-11-21T02:53:55;1.30;;;0.60;;
82742;SDS011;72483;50.656;7.216;2023-11-21T02:56:23;0.77;;;0.60;;
82742;SDS011;72483;50.656;7.216;2023-11-21T02:58:51;1.85;;;0.70;;
82742;SDS011;72483;50.656;7.216;2023-11-21T03:01:18;1.75;;;0.80;;
82742;SDS011;72483;50.656;7.216;2023-11-21T03:03:45;1.33;;;0.68;;
82742;SDS011;72483;50.656;7.216;2023-11-21T03:06:12;2.25;;;0.95;;
82742;SDS011;72483;50.656;7.216;2023-11-21T03:08:39;1.50;;;0.70;;
82742;SDS011;72483;50.656;7.216;2023-11-21T03:11:07;0.98;;;0.50;;
82742;SDS011;72483;50.656;7.216;2023-11-21T03:13:34;0.90;;;0.73;;
82742;SDS011;72483;50.656;7.216;2023-11-21T03:16:02;0.88;;;0.60;;
82742;SDS011;72483;50.656;7.216;2023-11-21T03:18:28;4.28;;;0.68;;
82742;SDS011;72483;50.656;7.216;2023-11-21T03:20:55;1.35;;;0.80;;
82742;SDS011;72483;50.656;7.216;2023-11-21T03:23:22;1.10;;;0.40;;
82742;SDS011;72483;50.656;7.216;2023-11-21T03:25:48;2.38;;;0.68;;
82742;SDS011;72483;50.656;7.216;2023-11-21T03:28:15;0.40;;;0.40;;
82742;SDS011;72483;50.656;7.216;2023-11-21T03:30:41;1.55;;;0.70;;
82742;SDS011;72483;50.656;7.216;2023-11-21T03:33:09;0.82;;;0.60;;
82742;SDS011;72483;50.656;7.216;2023-11-21T03:35:36;1.17;;;0.60;;
82742;SDS011;72483;50.656;7.216;2023-11-21T03:38:02;0.63;;;0.47;;
82742;SDS011;72483;50.656;7.216;2023-11-21T03:40:29;1.25;;;0.47;;
82742;SDS011;72483;50.656;7.216;2023-11-21T03:42:57;1.10;;;0.52;;
82742;SDS011;72483;50.656;7.216;2023-11-21T03:45:23;1.23;;;0.60;;
82742;SDS011;72483;50.656;7.216;2023-11-21T03:47:50;0.90;;;0.57;;
82742;SDS011;72483;50.656;7.216;2023-11-21T03:50:17;0.40;;;0.40;;
82742;SDS011;72483;50.656;7.216;2023-11-21T03:52:44;2.03;;;0.77;;
82742;SDS011;72483;50.656;7.216;2023-11-21T03:55:10;1.83;;;0.80;;
82742;SDS011;72483;50.656;7.216;2023-11-21T03:57:37;2.10;;;0.65;;
82742;SDS011;72483;50.656;7.216;2023-11-21T04:00:04;1.58;;;0.93;;
82742;SDS011;72483;50.656;7.216;2023-11-21T04:02:33;1.52;;;0.75;;
82742;SDS011;72483;50.656;7.216;2023-11-21T04:05:00;1.45;;;0.60;;
82742;SDS011;72483;50.656;7.216;2023-11-21T04:07:28;1.17;;;0.52;;
82742;SDS011;72483;50.656;7.216;2023-11-21T04:09:54;0.43;;;0.43;;
82742;SDS011;72483;50.656;7.216;2023-11-21T04:12:21;1.17;;;0.70;;
82742;SDS011;72483;50.656;7.216;2023-11-21T04:14:47;1.80;;;0.63;;
82742;SDS011;72483;50.656;7.216;2023-11-21T04:17:13;0.93;;;0.50;;
82742;SDS011;72483;50.656;7.216;2023-11-21T04:19:40;1.05;;;0.60;;
82742;SDS011;72483;50.656;7.216;2023-11-21T04:22:06;1.02;;;0.60;;
82742;SDS011;72483;50.656;7.216;2023-11-21T04:24:34;2.13;;;0.70;;
82742;SDS011;72483;50.656;7.216;2023-11-21T04:27:01;0.88;;;0.60;;
82742;SDS011;72483;50.656;7.216;2023-11-21T04:29:27;1.95;;;0.80;;
82742;SDS011;72483;50.656;7.216;2023-11-21T04:31:54;1.27;;;0.55;;
82742;SDS011;72483;50.656;7.216;2023-11-21T04:34:21;2.22;;;0.75;;
82742;SDS011;72483;50.656;7.216;2023-11-21T04:36:47;1.00;;;0.57;;
82742;SDS011;72483;50.656;7.216;2023-11-21T04:39:14;2.75;;;0.80;;
82742;SDS011;72483;50.656;7.216;2023-11-21T04:41:42;1.33;;;0.77;;
82742;SDS011;72483;50.656;7.216;2023-11-21T04:44:08;1.02;;;0.68;;
82742;SDS011;72483;50.656;7.216;2023-11-21T04:46:35;1.75;;;0.90;;
82742;SDS011;72483;50.656;7.216;2023-11-21T04:49:01;2.05;;;0.82;;
82742;SDS011;72483;50.656;7.216;2023-11-21T04:51:28;1.30;;;0.70;;
82742;SDS011;72483;50.656;7.216;2023-11-21T04:53:54;1.33;;;0.70;;
82742;SDS011;72483;50.656;7.216;2023-11-21T04:56:21;0.65;;;0.50;;
82742;SDS011;72483;50.656;7.216;2023-11-21T04:58:48;1.50;;;0.68;;
82742;SDS011;72483;50.656;7.216;2023-11-21T05:01:15;1.33;;;0.70;;
82742;SDS011;72483;50.656;7.216;2023-11-21T05:03:41;1.25;;;0.75;;
82742;SDS011;72483;50.656;7.216;2023-11-21T05:06:09;1.10;;;0.70;;
82742;SDS011;72483;50.656;7.216;2023-11-21T05:08:36;1.90;;;0.68;;
82742;SDS011;72483;50.656;7.216;2023-11-21T05:11:03;2.13;;;0.82;;
82742;SDS011;72483;50.656;7.216;2023-11-21T05:13:29;0.80;;;0.50;;
82742;SDS011;72483;50.656;7.216;2023-11-21T05:15:58;2.00;;;0.52;;
82742;SDS011;72483;50.656;7.216;2023-11-21T05:18:25;1.65;;;0.80;;
82742;SDS011;72483;50.656;7.216;2023-11-21T05:20:52;0.77;;;0.50;;
82742;SDS011;72483;50.656;7.216;2023-11-21T05:23:18;1.25;;;0.70;;
82742;SDS011;72483;50.656;7.216;2023-11-21T05:25:45;1.90;;;0.77;;
82742;SDS011;72483;50.656;7.216;2023-11-21T05:28:12;1.20;;;0.55;;
82742;SDS011;72483;50.656;7.216;2023-11-21T05:30:38;1.42;;;0.80;;
82742;SDS011;72483;50.656;7.216;2023-11-21T05:33:06;1.30;;;0.70;;
82742;SDS011;72483;50.656;7.216;2023-11-21T05:35:33;0.50;;;0.50;;
82742;SDS011;72483;50.656;7.216;2023-11-21T05:37:59;0.93;;;0.60;;
82742;SDS011;72483;50.656;7.216;2023-11-21T05:40:26;1.10;;;0.50;;
82742;SDS011;72483;50.656;7.216;2023-11-21T05:42:54;2.42;;;0.80;;
82742;SDS011;72483;50.656;7.216;2023-11-21T05:45:21;2.30;;;0.85;;
82742;SDS011;72483;50.656;7.216;2023-11-21T05:47:47;1.45;;;0.70;;
82742;SDS011;72483;50.656;7.216;2023-11-21T05:50:15;1.90;;;0.60;;
82742;SDS011;72483;50.656;7.216;2023-11-21T05:52:43;2.38;;;0.90;;
82742;SDS011;72483;50.656;7.216;2023-11-21T05:55:11;1.52;;;0.50;;
82742;SDS011;72483;50.656;7.216;2023-11-21T05:57:39;1.67;;;0.85;;
82742;SDS011;72483;50.656;7.216;2023-11-21T06:00:06;0.85;;;0.50;;
82742;SDS011;72483;50.656;7.216;2023-11-21T06:02:37;1.27;;;0.70;;
82742;SDS011;72483;50.656;7.216;2023-11-21T06:05:06;0.98;;;0.70;;
82742;SDS011;72483;50.656;7.216;2023-11-21T06:07:35;2.22;;;0.90;;
82742;SDS011;72483;50.656;7.216;2023-11-21T06:10:01;1.48;;;0.70;;
82742;SDS011;72483;50.656;7.216;2023-11-21T06:12:31;1.75;;;0.90;;
82742;SDS011;72483;50.656;7.216;2023-11-21T06:15:00;1.85;;;0.80;;
82742;SDS011;72483;50.656;7.216;2023-11-21T06:17:29;0.98;;;0.60;;
82742;SDS011;72483;50.656;7.216;2023-11-21T06:19:55;0.95;;;0.75;;
82742;SDS011;72483;50.656;7.216;2023-11-21T06:22:22;1.15;;;0.77;;
82742;SDS011;72483;50.656;7.216;2023-11-21T06:24:49;1.73;;;0.80;;
82742;SDS011;72483;50.656;7.216;2023-11-21T06:27:16;1.13;;;0.50;;
82742;SDS011;72483;50.656;7.216;2023-11-21T06:29:43;2.40;;;0.93;;
82742;SDS011;72483;50.656;7.216;2023-11-21T06:32:09;1.48;;;0.70;;
82742;SDS011;72483;50.656;7.216;2023-11-21T06:34:36;1.00;;;0.60;;
82742;SDS011;72483;50.656;7.216;2023-11-21T06:37:03;0.88;;;0.60;;
82742;SDS011;72483;50.656;7.216;2023-11-21T06:39:29;0.98;;;0.47;;
82742;SDS011;72483;50.656;7.216;2023-11-21T06:41:57;1.13;;;0.65;;
82742;SDS011;72483;50.656;7.216;2023-11-21T06:44:25;1.35;;;0.70;;
82742;SDS011;72483;50.656;7.216;2023-11-21T06:46:52;1.30;;;0.60;;
82742;SDS011;72483;50.656;7.216;2023-11-21T06:49:18;1.55;;;0.57;;
82742;SDS011;72483;50.656;7.216;2023-11-21T06:51:45;1.30;;;0.80;;
82742;SDS011;72483;50.656;7.216;2023-11-21T06:54:12;1.00;;;0.75;;
82742;SDS011;72483;50.656;7.216;2023-11-21T06:56:39;1.80;;;0.60;;
82742;SDS011;72483;50.656;7.216;2023-11-21T06:59:07;1.00;;;0.40;;
82742;SDS011;72483;50.656;7.216;2023-11-21T07:01:35;1.80;;;0.93;;
82742;SDS011;72483;50.656;7.216;2023-11-21T07:04:04;1.85;;;0.70;;
82742;SDS011;72483;50.656;7.216;2023-11-21T07:06:31;0.98;;;0.57;;
82742;SDS011;72483;50.656;7.216;2023-11-21T07:08:57;1.45;;;0.60;;
82742;SDS011;72483;50.656;7.216;2023-11-21T07:11:26;1.77;;;0.93;;
82742;SDS011;72483;50.656;7.216;2023-11-21T07:13:52;1.80;;;0.70;;
82742;SDS011;72483;50.656;7.216;2023-11-21T07:16:20;1.58;;;0.70;;
82742;SDS011;72483;50.656;7.216;2023-11-21T07:18:47;2.65;;;0.80;;
82742;SDS011;72483;50.656;7.216;2023-11-21T07:21:14;1.85;;;0.82;;
82742;SDS011;72483;50.656;7.216;2023-11-21T07:23:41;1.80;;;0.80;;
82742;SDS011;72483;50.656;7.216;2023-11-21T07:26:07;2.20;;;0.90;;
82742;SDS011;72483;50.656;7.216;2023-11-21T07:28:35;1.10;;;0.47;;
82742;SDS011;72483;50.656;7.216;2023-11-21T07:31:02;2.17;;;0.77;;
82742;SDS011;72483;50.656;7.216;2023-11-21T07:33:30;1.55;;;0.82;;
82742;SDS011;72483;50.656;7.216;2023-11-21T07:35:57;1.35;;;0.70;;
82742;SDS011;72483;50.656;7.216;2023-11-21T07:38:23;3.17;;;0.93;;
82742;SDS011;72483;50.656;7.216;2023-11-21T07:40:50;1.25;;;0.68;;
82742;SDS011;72483;50.656;7.216;2023-11-21T07:43:16;1.65;;;0.73;;
82742;SDS011;72483;50.656;7.216;2023-11-21T07:45:44;2.00;;;0.90;;
82742;SDS011;72483;50.656;7.216;2023-11-21T07:48:11;1.02;;;0.60;;
82742;SDS011;72483;50.656;7.216;2023-11-21T07:50:39;2.40;;;0.90;;
82742;SDS011;72483;50.656;7.216;2023-11-21T07:53:05;1.60;;;0.70;;
82742;SDS011;72483;50.656;7.216;2023-11-21T07:55:32;1.60;;;0.80;;
82742;SDS011;72483;50.656;7.216;2023-11-21T07:57:58;1.48;;;0.75;;
82742;SDS011;72483;50.656;7.216;2023-11-21T08:00:25;1.20;;;0.80;;
82742;SDS011;72483;50.656;7.216;2023-11-21T08:02:55;1.83;;;0.98;;
82742;SDS011;72483;50.656;7.216;2023-11-21T08:05:21;1.50;;;0.80;;
82742;SDS011;72483;50.656;7.216;2023-11-21T08:07:49;1.70;;;0.65;;
82742;SDS011;72483;50.656;7.216;2023-11-21T08:10:16;1.88;;;0.82;;
82742;SDS011;72483;50.656;7.216;2023-11-21T08:12:42;2.28;;;0.80;;
82742;SDS011;72483;50.656;7.216;2023-11-21T08:15:09;1.23;;;0.70;;
82742;SDS011;72483;50.656;7.216;2023-11-21T08:17:36;1.73;;;0.80;;
82742;SDS011;72483;50.656;7.216;2023-11-21T08:20:02;1.35;;;0.75;;
82742;SDS011;72483;50.656;7.216;2023-11-21T08:22:29;2.65;;;0.90;;
82742;SDS011;72483;50.656;7.216;2023-11-21T08:24:58;2.22;;;0.88;;
82742;SDS011;72483;50.656;7.216;2023-11-21T08:27:25;1.73;;;0.82;;
82742;SDS011;72483;50.656;7.216;2023-11-21T08:29:51;1.50;;;0.80;;
82742;SDS011;72483;50.656;7.216;2023-11-21T08:32:18;1.88;;;0.80;;
82742;SDS011;72483;50.656;7.216;2023-11-21T08:34:44;1.92;;;0.90;;
82742;SDS011;72483;50.656;7.216;2023-11-21T08:37:11;1.02;;;0.55;;
82742;SDS011;72483;50.656;7.216;2023-11-21T08:39:40;0.75;;;0.63;;
82742;SDS011;72483;50.656;7.216;2023-11-21T08:42:09;1.67;;;0.95;;
82742;SDS011;72483;50.656;7.216;2023-11-21T08:44:35;1.38;;;0.70;;
82742;SDS011;72483;50.656;7.216;2023-11-21T08:47:03;1.95;;;0.90;;
82742;SDS011;72483;50.656;7.216;2023-11-21T08:49:30;1.75;;;0.85;;
82742;SDS011;72483;50.656;7.216;2023-11-21T08:51:57;1.98;;;1.00;;
82742;SDS011;72483;50.656;7.216;2023-11-21T08:54:24;1.17;;;0.73;;
82742;SDS011;72483;50.656;7.216;2023-11-21T08:56:51;2.13;;;0.75;;
82742;SDS011;72483;50.656;7.216;2023-11-21T08:59:19;2.50;;;0.80;;
82742;SDS011;72483;50.656;7.216;2023-11-21T09:01:46;2.08;;;0.93;;
82742;SDS011;72483;50.656;7.216;2023-11-21T09:04:13;1.90;;;0.68;;
82742;SDS011;72483;50.656;7.216;2023-11-21T09:06:39;4.93;;;1.45;;
82742;SDS011;72483;50.656;7.216;2023-11-21T09:09:06;1.33;;;0.70;;
82742;SDS011;72483;50.656;7.216;2023-11-21T09:11:33;1.48;;;0.75;;
82742;SDS011;72483;50.656;7.216;2023-11-21T09:14:00;1.67;;;0.80;;
82742;SDS011;72483;50.656;7.216;2023-11-21T09:16:29;1.52;;;0.75;;
82742;SDS011;72483;50.656;7.216;2023-11-21T09:18:56;1.27;;;0.80;;
82742;SDS011;72483;50.656;7.216;2023-11-21T09:21:23;1.75;;;0.90;;
82742;SDS011;72483;50.656;7.216;2023-11-21T09:23:50;3.20;;;0.98;;
82742;SDS011;72483;50.656;7.216;2023-11-21T09:26:17;1.48;;;0.88;;
82742;SDS011;72483;50.656;7.216;2023-11-21T09:28:44;1.15;;;0.70;;
82742;SDS011;72483;50.656;7.216;2023-11-21T09:31:13;2.10;;;0.80;;
82742;SDS011;72483;50.656;7.216;2023-11-21T09:33:42;1.98;;;0.98;;
82742;SDS011;72483;50.656;7.216;2023-11-21T09:36:11;1.35;;;0.70;;
82742;SDS011;72483;50.656;7.216;2023-11-21T09:38:38;1.50;;;0.90;;
82742;SDS011;72483;50.656;7.216;2023-11-21T09:41:06;1.20;;;0.80;;
82742;SDS011;72483;50.656;7.216;2023-11-21T09:43:42;0.98;;;0.60;;
82742;SDS011;72483;50.656;7.216;2023-11-21T09:46:11;1.42;;;0.70;;
82742;SDS011;72483;50.656;7.216;2023-11-21T09:48:46;2.47;;;0.68;;
82742;SDS011;72483;50.656;7.216;2023-11-21T09:51:17;2.70;;;0.98;;
82742;SDS011;72483;50.656;7.216;2023-11-21T09:53:46;1.60;;;0.90;;
82742;SDS011;72483;50.656;7.216;2023-11-21T09:56:17;1.55;;;0.75;;
82742;SDS011;72483;50.656;7.216;2023-11-21T10:01:16;1.20;;;0.77;;
82742;SDS011;72483;50.656;7.216;2023-11-21T10:03:46;1.40;;;0.63;;
82742;SDS011;72483;50.656;7.216;2023-11-21T10:06:12;1.63;;;0.80;;
82742;SDS011;72483;50.656;7.216;2023-11-21T10:08:40;2.25;;;0.90;;
82742;SDS011;72483;50.656;7.216;2023-11-21T10:11:07;2.60;;;0.90;;
82742;SDS011;72483;50.656;7.216;2023-11-21T10:13:39;1.48;;;0.80;;
82742;SDS011;72483;50.656;7.216;2023-11-21T10:16:07;1.00;;;0.75;;
82742;SDS011;72483;50.656;7.216;2023-11-21T10:18:37;2.85;;;1.10;;
82742;SDS011;72483;50.656;7.216;2023-11-21T10:21:06;2.90;;;1.00;;
82742;SDS011;72483;50.656;7.216;2023-11-21T10:23:34;2.15;;;1.00;;
82742;SDS011;72483;50.656;7.216;2023-11-21T10:26:00;1.42;;;0.75;;
82742;SDS011;72483;50.656;7.216;2023-11-21T10:28:27;1.67;;;0.65;;
82742;SDS011;72483;50.656;7.216;2023-11-21T10:30:54;1.55;;;0.98;;
82742;SDS011;72483;50.656;7.216;2023-11-21T10:33:26;0.95;;;0.70;;
82742;SDS011;72483;50.656;7.216;2023-11-21T10:35:54;2.03;;;0.85;;
82742;SDS011;72483;50.656;7.216;2023-11-21T10:38:22;2.10;;;1.08;;
82742;SDS011;72483;50.656;7.216;2023-11-21T10:40:51;1.55;;;0.88;;
82742;SDS011;72483;50.656;7.216;2023-11-21T10:43:19;1.73;;;0.70;;
82742;SDS011;72483;50.656;7.216;2023-11-21T10:45:50;2.30;;;0.93;;
82742;SDS011;72483;50.656;7.216;2023-11-21T10:48:17;1.70;;;0.90;;
82742;SDS011;72483;50.656;7.216;2023-11-21T10:50:44;1.60;;;0.77;;
82742;SDS011;72483;50.656;7.216;2023-11-21T10:53:11;1.35;;;0.60;;
82742;SDS011;72483;50.656;7.216;2023-11-21T10:55:39;3.90;;;0.90;;
82742;SDS011;72483;50.656;7.216;2023-11-21T10:58:06;1.35;;;0.82;;
82742;SDS011;72483;50.656;7.216;2023-11-21T11:00:35;2.28;;;0.85;;
82742;SDS011;72483;50.656;7.216;2023-11-21T11:03:05;1.88;;;1.08;;
82742;SDS011;72483;50.656;7.216;2023-11-21T11:05:38;1.92;;;1.00;;
82742;SDS011;72483;50.656;7.216;2023-11-21T11:08:08;1.48;;;0.90;;
82742;SDS011;72483;50.656;7.216;2023-11-21T11:10:39;2.60;;;1.10;;
82742;SDS011;72483;50.656;7.216;2023-11-21T11:13:07;2.00;;;1.02;;
82742;SDS011;72483;50.656;7.216;2023-11-21T11:15:33;2.40;;;1.10;;
82742;SDS011;72483;50.656;7.216;2023-11-21T11:18:00;3.10;;;1.08;;
82742;SDS011;72483;50.656;7.216;2023-11-21T11:20:30;1.33;;;0.70;;
82742;SDS011;72483;50.656;7.216;2023-11-21T11:23:07;2.15;;;0.90;;
82742;SDS011;72483;50.656;7.216;2023-11-21T11:28:20;1.83;;;1.02;;
82742;SDS011;72483;50.656;7.216;2023-11-21T11:30:57;2.70;;;1.17;;
82742;SDS011;72483;50.656;7.216;2023-11-21T11:33:31;2.72;;;1.08;;
82742;SDS011;72483;50.656;7.216;2023-11-21T11:36:05;3.03;;;1.08;;
82742;SDS011;72483;50.656;7.216;2023-11-21T11:38:36;2.47;;;0.90;;
82742;SDS011;72483;50.656;7.216;2023-11-21T11:41:05;3.17;;;1.17;;
82742;SDS011;72483;50.656;7.216;2023-11-21T11:43:34;3.70;;;1.00;;
82742;SDS011;72483;50.656;7.216;2023-11-21T11:46:09;2.83;;;1.00;;
82742;SDS011;72483;50.656;7.216;2023-11-21T11:48:38;4.50;;;1.15;;
82742;SDS011;72483;50.656;7.216;2023-11-21T11:51:05;1.98;;;0.90;;
82742;SDS011;72483;50.656;7.216;2023-11-21T11:53:37;1.42;;;0.75;;
82742;SDS011;72483;50.656;7.216;2023-11-21T11:56:21;2.88;;;1.08;;
82742;SDS011;72483;50.656;7.216;2023-11-21T11:58:50;2.53;;;1.10;;
82742;SDS011;72483;50.656;7.216;2023-11-21T12:01:18;2.20;;;1.00;;
82742;SDS011;72483;50.656;7.216;2023-11-21T12:03:47;2.72;;;1.30;;
82742;SDS011;72483;50.656;7.216;2023-11-21T12:06:55;4.00;;;1.23;;
82742;SDS011;72483;50.656;7.216;2023-11-21T12:09:22;2.60;;;1.00;;
82742;SDS011;72483;50.656;7.216;2023-11-21T12:11:53;4.47;;;1.30;;
82742;SDS011;72483;50.656;7.216;2023-11-21T12:14:21;3.60;;;1.13;;
82742;SDS011;72483;50.656;7.216;2023-11-21T12:16:48;1.88;;;0.98;;
82742;SDS011;72483;50.656;7.216;2023-11-21T12:19:16;3.40;;;1.30;;
82742;SDS011;72483;50.656;7.216;2023-11-21T12:21:43;4.50;;;1.20;;
82742;SDS011;72483;50.656;7.216;2023-11-21T12:24:10;3.75;;;1.50;;
82742;SDS011;72483;50.656;7.216;2023-11-21T12:26:38;5.10;;;1.40;;
82742;SDS011;72483;50.656;7.216;2023-11-21T12:29:06;1.75;;;0.85;;
82742;SDS011;72483;50.656;7.216;2023-11-21T12:31:33;5.55;;;1.02;;
82742;SDS011;72483;50.656;7.216;2023-11-21T12:34:01;3.40;;;1.25;;
82742;SDS011;72483;50.656;7.216;2023-11-21T12:36:27;2.72;;;1.23;;
82742;SDS011;72483;50.656;7.216;2023-11-21T12:38:55;1.95;;;1.00;;
82742;SDS011;72483;50.656;7.216;2023-11-21T12:41:21;3.75;;;1.10;;
82742;SDS011;72483;50.656;7.216;2023-11-21T12:43:48;3.15;;;1.30;;
82742;SDS011;72483;50.656;7.216;2023-11-21T12:46:16;4.38;;;1.50;;
82742;SDS011;72483;50.656;7.216;2023-11-21T12:48:43;4.65;;;1.88;;
82742;SDS011;72483;50.656;7.216;2023-11-21T12:51:11;5.15;;;1.52;;
82742;SDS011;72483;50.656;7.216;2023-11-21T12:53:39;2.92;;;1.25;;
82742;SDS011;72483;50.656;7.216;2023-11-21T12:56:06;3.53;;;1.17;;
82742;SDS011;72483;50.656;7.216;2023-11-21T12:58:34;1.95;;;1.00;;
82742;SDS011;72483;50.656;7.216;2023-11-21T13:01:01;6.18;;;1.60;;
82742;SDS011;72483;50.656;7.216;2023-11-21T13:03:30;2.70;;;1.27;;
82742;SDS011;72483;50.656;7.216;2023-11-21T13:05:58;3.03;;;1.40;;
82742;SDS011;72483;50.656;7.216;2023-11-21T13:08:26;4.25;;;1.58;;
82742;SDS011;72483;50.656;7.216;2023-11-21T13:10:55;6.00;;;1.52;;
82742;SDS011;72483;50.656;7.216;2023-11-21T13:13:23;3.38;;;1.20;;
82742;SDS011;72483;50.656;7.216;2023-11-21T13:15:53;4.82;;;1.65;;
82742;SDS011;72483;50.656;7.216;2023-11-21T13:18:41;8.23;;;1.98;;
82742;SDS011;72483;50.656;7.216;2023-11-21T13:21:09;3.67;;;1.25;;
82742;SDS011;72483;50.656;7.216;2023-11-21T13:23:38;7.05;;;2.35;;
82742;SDS011;72483;50.656;7.216;2023-11-21T13:26:06;4.75;;;1.95;;
82742;SDS011;72483;50.656;7.216;2023-11-21T13:28:33;6.60;;;1.75;;
82742;SDS011;72483;50.656;7.216;2023-11-21T13:31:03;7.20;;;1.50;;
82742;SDS011;72483;50.656;7.216;2023-11-21T13:33:47;6.70;;;1.73;;
82742;SDS011;72483;50.656;7.216;2023-11-21T13:36:19;4.05;;;1.58;;
82742;SDS011;72483;50.656;7.216;2023-11-21T13:38:48;6.65;;;1.50;;
82742;SDS011;72483;50.656;7.216;2023-11-21T13:41:15;5.88;;;2.63;;
82742;SDS011;72483;50.656;7.216;2023-11-21T13:43:43;7.13;;;1.75;;
82742;SDS011;72483;50.656;7.216;2023-11-21T13:46:14;7.53;;;1.40;;
82742;SDS011;72483;50.656;7.216;2023-11-21T13:48:48;6.32;;;2.00;;
82742;SDS011;72483;50.656;7.216;2023-11-21T13:51:18;7.55;;;1.90;;
82742;SDS011;72483;50.656;7.216;2023-11-21T13:53:46;4.82;;;1.55;;
82742;SDS011;72483;50.656;7.216;2023-11-21T13:56:15;6.65;;;2.00;;
82742;SDS011;72483;50.656;7.216;2023-11-21T13:58:46;6.35;;;2.17;;
82742;SDS011;72483;50.656;7.216;2023-11-21T14:01:16;3.33;;;1.63;;
82742;SDS011;72483;50.656;7.216;2023-11-21T14:04:08;7.03;;;2.40;;
82742;SDS011;72483;50.656;7.216;2023-11-21T14:09:13;7.20;;;1.95;;
82742;SDS011;72483;50.656;7.216;2023-11-21T14:11:47;4.95;;;1.73;;
82742;SDS011;72483;50.656;7.216;2023-11-21T14:14:15;6.55;;;1.67;;
82742;SDS011;72483;50.656;7.216;2023-11-21T14:16:43;6.07;;;1.83;;
82742;SDS011;72483;50.656;7.216;2023-11-21T14:19:11;7.38;;;1.88;;
82742;SDS011;72483;50.656;7.216;2023-11-21T14:21:40;5.93;;;1.60;;
82742;SDS011;72483;50.656;7.216;2023-11-21T14:24:08;5.60;;;1.67;;
82742;SDS011;72483;50.656;7.216;2023-11-21T14:26:37;6.40;;;1.85;;
82742;SDS011;72483;50.656;7.216;2023-11-21T14:29:05;4.03;;;1.50;;
82742;SDS011;72483;50.656;7.216;2023-11-21T14:31:32;6.65;;;2.42;;
82742;SDS011;72483;50.656;7.216;2023-11-21T14:33:59;8.48;;;1.67;;
82742;SDS011;72483;50.656;7.216;2023-11-21T14:36:28;5.88;;;1.80;;
82742;SDS011;72483;50.656;7.216;2023-11-21T14:38:55;7.10;;;1.42;;
82742;SDS011;72483;50.656;7.216;2023-11-21T14:41:21;4.75;;;1.77;;
82742;SDS011;72483;50.656;7.216;2023-11-21T14:43:47;5.72;;;1.92;;
82742;SDS011;72483;50.656;7.216;2023-11-21T14:46:15;7.53;;;2.15;;
82742;SDS011;72483;50.656;7.216;2023-11-21T14:48:44;5.30;;;1.83;;
82742;SDS011;72483;50.656;7.216;2023-11-21T14:51:20;5.75;;;1.73;;
82742;SDS011;72483;50.656;7.216;2023-11-21T14:53:56;7.75;;;2.17;;
82742;SDS011;72483;50.656;7.216;2023-11-21T14:56:31;5.10;;;1.98;;
82742;SDS011;72483;50.656;7.216;2023-11-21T14:58:59;5.63;;;2.00;;
82742;SDS011;72483;50.656;7.216;2023-11-21T15:01:33;4.93;;;1.95;;